Time;durP1;ratioP1;P1;durP2;ratioP2;P2;SDS_P1;SDS_P2;PMS_P1;PMS_P2;Temp;Humidity;BMP_temperature;BMP_pressure;BME280_temperature;BME280_humidity;BME280_pressure;Samples;Min_cycle;Max_cycle;Signal;HPM_P1;HPM_P2
2023/10/13 00:01:38;;;;;;;10.20;6.25;;;24.10;99.90;;;;;;6213957;28;89474;-68
2023/10/13 00:04:42;;;;;;;12.43;6.40;;;24.00;99.90;;;;;;6211361;28;89959;-68
2023/10/13 00:07:44;;;;;;;7.47;6.13;;;24.00;99.80;;;;;;6217238;28;89071;-67
2023/10/13 00:10:47;;;;;;;7.18;6.05;;;24.00;99.80;;;;;;6202970;28;91573;-67
2023/10/13 00:13:51;;;;;;;8.98;6.20;;;24.00;99.70;;;;;;6215132;28;88784;-67
2023/10/13 00:17:03;;;;;;;8.15;6.18;;;24.10;99.80;;;;;;6220436;28;89218;-68
2023/10/13 00:20:12;;;;;;;7.90;6.25;;;24.00;99.50;;;;;;6214509;28;89270;-69
2023/10/13 00:23:15;;;;;;;8.55;6.13;;;24.00;99.20;;;;;;6219019;28;89251;-68
2023/10/13 00:26:18;;;;;;;10.05;6.22;;;24.00;98.80;;;;;;6218232;28;88512;-68
2023/10/13 00:29:29;;;;;;;9.43;5.80;;;24.00;98.70;;;;;;6217297;28;89055;-68
2023/10/13 00:32:31;;;;;;;6.85;6.00;;;24.00;98.50;;;;;;6211095;28;89122;-67
2023/10/13 00:35:36;;;;;;;7.10;5.63;;;24.00;98.20;;;;;;6211060;28;90298;-67
2023/10/13 00:38:39;;;;;;;7.13;5.32;;;24.00;98.00;;;;;;6215279;28;89016;-68
2023/10/13 00:41:52;;;;;;;7.03;5.25;;;24.00;97.80;;;;;;6220842;28;89957;-68
2023/10/13 00:44:55;;;;;;;7.72;5.22;;;24.00;97.60;;;;;;6213860;28;88835;-68
2023/10/13 00:47:57;;;;;;;5.97;5.28;;;24.00;97.40;;;;;;6218184;28;89183;-67
2023/10/13 00:51:02;;;;;;;8.13;5.32;;;24.00;97.20;;;;;;6213742;28;89129;-69
2023/10/13 00:54:11;;;;;;;7.13;5.10;;;24.00;97.10;;;;;;6211568;28;89266;-68
2023/10/13 00:57:26;;;;;;;7.45;5.22;;;24.00;96.80;;;;;;6210751;28;88503;-68
2023/10/13 01:00:29;;;;;;;5.80;4.95;;;24.00;96.60;;;;;;6222056;28;88127;-68
2023/10/13 01:03:31;;;;;;;6.68;4.82;;;23.90;96.50;;;;;;6211457;28;88931;-68
2023/10/13 01:06:34;;;;;;;6.60;4.82;;;23.90;96.40;;;;;;6212782;28;90111;-68
2023/10/13 01:09:43;;;;;;;9.13;5.80;;;23.90;96.60;;;;;;6207391;28;88041;-68
2023/10/13 01:12:45;;;;;;;7.72;5.50;;;23.90;96.80;;;;;;6215006;28;88969;-68
2023/10/13 01:15:49;;;;;;;6.85;4.97;;;24.00;96.80;;;;;;6214554;28;89183;-68
2023/10/13 01:18:51;;;;;;;7.40;5.10;;;23.90;97.10;;;;;;6212671;28;88709;-68
2023/10/13 01:21:57;;;;;;;5.75;4.72;;;23.90;97.40;;;;;;6219173;28;88506;-68
2023/10/13 01:25:10;;;;;;;9.30;5.50;;;23.90;98.10;;;;;;6204929;28;87883;-68
2023/10/13 01:28:15;;;;;;;8.32;5.15;;;23.90;98.50;;;;;;6206832;28;88356;-68
2023/10/13 01:31:27;;;;;;;5.63;4.97;;;23.90;98.50;;;;;;6204756;28;89256;-68
2023/10/13 01:34:33;;;;;;;6.32;4.97;;;23.90;98.40;;;;;;6217047;28;89261;-68
2023/10/13 01:37:35;;;;;;;6.40;4.88;;;23.90;98.20;;;;;;6211339;28;90089;-68
2023/10/13 01:40:38;;;;;;;7.03;4.78;;;23.90;98.10;;;;;;6202116;28;87870;-68
2023/10/13 01:43:40;;;;;;;7.05;4.30;;;23.90;98.10;;;;;;6210555;28;89070;-68
2023/10/13 01:46:44;;;;;;;6.95;4.40;;;23.90;98.10;;;;;;6208884;28;89156;-68
2023/10/13 01:49:49;;;;;;;7.03;4.32;;;23.90;97.80;;;;;;6225850;28;88878;-68
2023/10/13 01:52:59;;;;;;;6.30;4.47;;;23.90;96.70;;;;;;6211939;28;87928;-68
2023/10/13 01:56:23;;;;;;;5.10;4.35;;;23.90;97.00;;;;;;6214512;28;89079;-68
2023/10/13 01:59:23;;;;;;;5.75;4.45;;;23.90;97.50;;;;;;6216679;28;88229;-68
2023/10/13 02:02:29;;;;;;;5.45;4.25;;;23.90;97.80;;;;;;6214283;28;87854;-68
2023/10/13 02:05:35;;;;;;;7.43;4.50;;;23.90;97.80;;;;;;6223625;28;88996;-67
2023/10/13 02:08:42;;;;;;;4.97;4.38;;;23.90;97.80;;;;;;6210913;28;90122;-68
2023/10/13 02:11:46;;;;;;;5.53;4.20;;;23.90;97.80;;;;;;6221603;28;89240;-67
2023/10/13 02:14:47;;;;;;;6.68;4.85;;;23.90;98.20;;;;;;6210035;28;89404;-68
2023/10/13 02:17:51;;;;;;;5.88;4.32;;;23.90;98.10;;;;;;6217245;28;89252;-68
2023/10/13 02:20:55;;;;;;;6.10;4.72;;;23.90;97.60;;;;;;6227389;28;89114;-69
2023/10/13 02:23:59;;;;;;;5.70;4.25;;;23.90;96.70;;;;;;6221820;28;89397;-69
2023/10/13 02:27:04;;;;;;;6.07;4.38;;;23.90;96.60;;;;;;6213970;28;88213;-69
2023/10/13 02:30:13;;;;;;;5.90;4.40;;;23.90;97.20;;;;;;6212714;28;88268;-68
2023/10/13 02:33:20;;;;;;;5.18;4.30;;;23.90;97.60;;;;;;6213604;28;89019;-68
2023/10/13 02:36:36;;;;;;;5.65;4.38;;;23.90;97.70;;;;;;6216626;28;87989;-68
2023/10/13 02:39:41;;;;;;;4.45;3.92;;;23.90;97.90;;;;;;6213325;28;90429;-68
2023/10/13 02:42:44;;;;;;;6.68;4.45;;;23.90;98.30;;;;;;6205030;28;89049;-68
2023/10/13 02:45:57;;;;;;;4.75;4.18;;;23.90;98.30;;;;;;6207915;28;88149;-69
2023/10/13 02:49:02;;;;;;;5.53;4.40;;;23.90;98.70;;;;;;6212502;28;87901;-69
2023/10/13 02:52:08;;;;;;;5.95;4.78;;;23.90;98.90;;;;;;6222873;28;89142;-69
2023/10/13 02:55:10;;;;;;;5.72;4.50;;;23.90;99.00;;;;;;6206913;28;89147;-69
2023/10/13 02:58:14;;;;;;;6.70;4.70;;;23.90;99.10;;;;;;6211898;28;88847;-69
2023/10/13 03:01:19;;;;;;;6.28;4.40;;;23.80;99.40;;;;;;6221547;28;88509;-68
2023/10/13 03:04:25;;;;;;;4.95;4.45;;;23.90;99.50;;;;;;6214143;28;89204;-68
2023/10/13 03:07:28;;;;;;;6.28;4.30;;;23.80;99.60;;;;;;6218292;28;89490;-69
2023/10/13 03:10:29;;;;;;;5.35;4.28;;;23.90;99.70;;;;;;6216200;28;90037;-69
2023/10/13 03:13:33;;;;;;;6.45;4.63;;;23.90;99.90;;;;;;6206058;28;88972;-68
2023/10/13 03:16:36;;;;;;;6.25;4.38;;;23.80;99.90;;;;;;6204371;28;89144;-68
2023/10/13 03:19:39;;;;;;;6.22;4.53;;;23.80;99.90;;;;;;6214737;28;88980;-69
2023/10/13 03:22:44;;;;;;;4.97;4.22;;;23.80;99.90;;;;;;6213737;28;89049;-68
2023/10/13 03:25:50;;;;;;;5.32;4.47;;;23.90;99.90;;;;;;6214398;28;88927;-68
2023/10/13 03:28:56;;;;;;;5.80;4.45;;;23.80;99.90;;;;;;6206141;28;89080;-68
2023/10/13 03:32:06;;;;;;;5.72;4.20;;;23.80;99.90;;;;;;6205024;28;88510;-68
2023/10/13 03:35:13;;;;;;;5.63;4.50;;;23.80;99.90;;;;;;6228826;28;88995;-67
2023/10/13 03:38:20;;;;;;;4.93;4.43;;;23.80;99.90;;;;;;6219439;28;89132;-67
2023/10/13 03:41:24;;;;;;;5.65;4.18;;;23.80;99.90;;;;;;6225840;28;90010;-67
2023/10/13 03:44:31;;;;;;;4.93;4.25;;;23.80;99.90;;;;;;6221283;28;89589;-67
2023/10/13 03:47:33;;;;;;;5.22;4.40;;;23.80;99.90;;;;;;6223995;28;89173;-67
2023/10/13 03:50:36;;;;;;;5.10;4.20;;;23.80;99.90;;;;;;6215570;28;89145;-67
2023/10/13 03:53:52;;;;;;;5.25;4.40;;;23.80;99.90;;;;;;6210027;28;87838;-67
2023/10/13 03:56:56;;;;;;;6.28;4.55;;;23.80;99.90;;;;;;6225108;28;89305;-67
2023/10/13 04:00:08;;;;;;;5.13;4.32;;;23.80;99.90;;;;;;6220912;28;88703;-67
2023/10/13 04:03:10;;;;;;;5.70;4.18;;;23.70;99.90;;;;;;6217109;28;88480;-67
2023/10/13 04:06:16;;;;;;;5.70;4.45;;;23.80;99.90;;;;;;6216010;28;89144;-67
2023/10/13 04:16:50;;;;;;;5.15;4.65;;;23.70;99.90;;;;;;6168338;28;88796;-67
2023/10/13 04:23:25;;;;;;;5.75;4.90;;;23.70;99.90;;;;;;6165953;28;88804;-67
2023/10/13 04:26:36;;;;;;;5.07;4.57;;;23.70;99.90;;;;;;6165736;28;89073;-67
2023/10/13 04:29:55;;;;;;;6.40;4.88;;;23.70;99.90;;;;;;6172891;28;89117;-67
2023/10/13 04:33:17;;;;;;;5.05;4.53;;;23.70;99.90;;;;;;6171316;28;89132;-67
2023/10/13 04:36:36;;;;;;;4.95;4.45;;;23.70;99.90;;;;;;6175390;28;88362;-67
2023/10/13 04:39:39;;;;;;;6.82;4.80;;;23.70;99.90;;;;;;6165752;28;89166;-67
2023/10/13 04:42:50;;;;;;;5.88;4.30;;;23.70;99.90;;;;;;6178519;28;88976;-67
2023/10/13 04:45:53;;;;;;;5.07;4.57;;;23.70;99.90;;;;;;6215234;28;89861;-68
2023/10/13 04:49:00;;;;;;;5.43;4.93;;;23.80;99.90;;;;;;6221542;28;89438;-67
2023/10/13 04:52:12;;;;;;;6.00;5.07;;;23.70;99.90;;;;;;6214122;28;89125;-67
2023/10/13 04:55:24;;;;;;;6.30;5.63;;;23.80;99.90;;;;;;6232704;28;88898;-68
2023/10/13 04:59:15;;;;;;;6.18;5.07;;;23.80;99.90;;;;;;6221384;28;89214;-68
2023/10/13 05:46:02;;;;;;;7.95;6.35;;;23.90;99.90;;;;;;6217647;28;87298;-67
2023/10/13 05:49:26;;;;;;;6.65;5.95;;;23.90;99.90;;;;;;6213476;28;88545;-67
2023/10/13 06:29:19;;;;;;;7.40;6.70;;;24.10;99.90;;;;;;6217199;28;87344;-68
2023/10/13 06:32:25;;;;;;;9.30;7.32;;;24.10;99.90;;;;;;6221323;28;89091;-67
2023/10/13 06:35:28;;;;;;;9.15;7.38;;;24.10;99.90;;;;;;6212515;28;88819;-67
2023/10/13 06:38:36;;;;;;;11.38;7.68;;;24.10;99.90;;;;;;6215570;28;89592;-67
2023/10/13 06:41:40;;;;;;;14.30;8.07;;;24.10;99.90;;;;;;6210016;28;89848;-67
2023/10/13 06:44:45;;;;;;;11.13;7.47;;;24.10;99.90;;;;;;6220702;28;89036;-68
2023/10/13 06:47:52;;;;;;;9.57;7.55;;;24.10;99.90;;;;;;6227579;28;88415;-68
2023/10/13 06:50:55;;;;;;;9.80;7.63;;;24.10;99.90;;;;;;6223103;28;88928;-67
2023/10/13 06:53:58;;;;;;;10.75;7.53;;;24.20;99.90;;;;;;6222475;28;89041;-67
2023/10/13 06:57:00;;;;;;;10.57;7.45;;;24.20;99.90;;;;;;6211671;28;89997;-68
2023/10/13 07:00:08;;;;;;;11.70;7.75;;;24.20;99.90;;;;;;6218454;28;89070;-68
2023/10/13 07:03:17;;;;;;;15.13;8.93;;;24.20;99.90;;;;;;6216702;28;88982;-68
2023/10/13 07:06:19;;;;;;;23.42;11.65;;;24.20;99.90;;;;;;6213850;28;89075;-68
2023/10/13 07:12:43;;;;;;;18.85;9.52;;;24.10;99.90;;;;;;6214240;28;87192;-68
2023/10/13 07:15:47;;;;;;;15.02;8.65;;;24.10;99.90;;;;;;6215315;28;87771;-68
2023/10/13 07:18:52;;;;;;;15.48;8.48;;;24.10;99.90;;;;;;6212871;28;88361;-68
2023/10/13 07:21:58;;;;;;;14.70;9.05;;;24.10;99.90;;;;;;6215060;28;89023;-68
2023/10/13 07:25:06;;;;;;;16.90;9.13;;;24.10;99.90;;;;;;6223964;28;89076;-68
2023/10/13 07:28:09;;;;;;;14.77;8.85;;;24.10;99.90;;;;;;6219274;28;90030;-68
2023/10/13 07:31:15;;;;;;;14.15;8.43;;;24.10;99.90;;;;;;6214881;28;89181;-68
2023/10/13 07:34:24;;;;;;;14.50;8.73;;;24.10;99.90;;;;;;6217160;28;89053;-68
2023/10/13 07:37:29;;;;;;;14.95;8.35;;;24.10;99.90;;;;;;6214857;28;89014;-68
2023/10/13 07:40:49;;;;;;;13.60;8.13;;;24.10;99.90;;;;;;6210570;28;87936;-68
2023/10/13 07:43:52;;;;;;;14.52;8.57;;;24.10;99.90;;;;;;6212653;28;89143;-68
2023/10/13 07:46:59;;;;;;;11.30;8.00;;;24.10;99.90;;;;;;6221291;28;87957;-68
2023/10/13 07:50:06;;;;;;;10.88;7.68;;;24.10;99.90;;;;;;6222544;28;88541;-68
2023/10/13 07:53:22;;;;;;;10.45;6.95;;;24.10;99.90;;;;;;6223304;28;89401;-68
2023/10/13 07:56:30;;;;;;;10.98;7.90;;;24.10;99.90;;;;;;6211426;28;89331;-68
2023/10/13 07:59:32;;;;;;;10.93;7.68;;;24.10;99.90;;;;;;6224324;28;90232;-68
2023/10/13 08:02:48;;;;;;;10.23;7.57;;;24.10;99.90;;;;;;6212727;28;89034;-68
2023/10/13 08:05:58;;;;;;;11.00;7.15;;;24.10;99.90;;;;;;6214494;28;89410;-68
2023/10/13 08:09:29;;;;;;;9.43;7.30;;;24.10;99.90;;;;;;6217344;28;89403;-68
2023/10/13 08:12:30;;;;;;;8.00;7.00;;;24.10;99.90;;;;;;6221107;28;89323;-68
2023/10/13 08:15:33;;;;;;;9.88;7.22;;;24.10;99.90;;;;;;6220142;28;89089;-68
2023/10/13 08:18:41;;;;;;;11.45;7.30;;;24.10;99.90;;;;;;6232656;28;89026;-68
2023/10/13 08:21:49;;;;;;;9.57;7.07;;;24.10;99.90;;;;;;6210204;28;88367;-69
2023/10/13 08:31:41;;;;;;;10.48;6.95;;;24.10;99.90;;;;;;6210777;28;89154;-68
2023/10/13 08:38:13;;;;;;;10.38;7.18;;;24.10;99.90;;;;;;6216591;28;87599;-68
2023/10/13 08:41:31;;;;;;;9.32;7.28;;;24.10;99.90;;;;;;6210069;28;89166;-68
2023/10/13 08:44:37;;;;;;;8.55;6.55;;;24.10;99.90;;;;;;6216202;28;89070;-68
2023/10/13 08:47:47;;;;;;;9.23;6.60;;;24.20;99.90;;;;;;6219777;28;90654;-68
2023/10/13 08:51:03;;;;;;;9.45;6.68;;;24.10;99.90;;;;;;6220310;28;89250;-68
2023/10/13 08:54:18;;;;;;;11.15;6.53;;;24.10;99.90;;;;;;6220567;28;88349;-68
2023/10/13 08:57:32;;;;;;;8.93;6.88;;;24.20;99.90;;;;;;6212041;28;87982;-68
2023/10/13 09:03:53;;;;;;;9.00;6.60;;;24.10;99.90;;;;;;6222730;28;89613;-68
2023/10/13 09:07:08;;;;;;;9.25;7.05;;;24.10;99.90;;;;;;6218704;28;89067;-68
2023/10/13 09:10:32;;;;;;;8.90;6.80;;;24.10;99.90;;;;;;6217838;28;91271;-68
2023/10/13 09:13:43;;;;;;;9.55;6.85;;;24.10;99.90;;;;;;6216030;28;89240;-68
2023/10/13 09:17:07;;;;;;;10.85;6.40;;;24.10;99.90;;;;;;6219181;28;87907;-68
2023/10/13 09:20:31;;;;;;;10.18;7.30;;;24.10;99.90;;;;;;6226273;28;89262;-68
2023/10/13 09:23:45;;;;;;;8.43;6.93;;;24.20;99.90;;;;;;6213104;28;88924;-68
2023/10/13 09:26:49;;;;;;;8.10;6.53;;;24.10;99.90;;;;;;6224004;28;87112;-68
2023/10/13 09:29:56;;;;;;;10.82;7.50;;;24.20;99.90;;;;;;6228853;28;88879;-68
2023/10/13 09:33:03;;;;;;;8.40;6.65;;;24.10;99.90;;;;;;6222285;28;89108;-68
2023/10/13 09:36:07;;;;;;;8.35;6.43;;;24.10;99.90;;;;;;6214417;28;90022;-69
2023/10/13 09:39:12;;;;;;;9.25;6.20;;;24.20;99.90;;;;;;6216429;28;89009;-68
2023/10/13 09:42:17;;;;;;;9.23;6.90;;;24.10;99.90;;;;;;6228361;28;89057;-68
2023/10/13 09:45:27;;;;;;;7.82;6.35;;;24.10;99.90;;;;;;6206779;28;89040;-68
2023/10/13 09:48:34;;;;;;;7.32;6.20;;;24.20;99.90;;;;;;6213557;28;88999;-68
2023/10/13 09:51:36;;;;;;;8.50;6.38;;;24.20;99.90;;;;;;6218928;28;89128;-69
2023/10/13 09:54:44;;;;;;;7.20;5.95;;;24.20;99.90;;;;;;6220125;28;88019;-68
2023/10/13 09:57:57;;;;;;;7.85;5.90;;;24.20;99.90;;;;;;6211206;28;88274;-68
2023/10/13 10:01:08;;;;;;;6.80;6.00;;;24.10;99.90;;;;;;6217038;28;89219;-68
2023/10/13 10:04:14;;;;;;;6.95;6.18;;;24.10;99.90;;;;;;6219564;28;89010;-68
2023/10/13 10:07:27;;;;;;;8.23;6.63;;;24.20;99.90;;;;;;6215294;28;89843;-68
2023/10/13 10:10:48;;;;;;;8.25;6.32;;;24.20;99.90;;;;;;6216011;28;89276;-68
2023/10/13 10:14:01;;;;;;;7.50;5.97;;;24.10;99.90;;;;;;6221094;28;89053;-68
2023/10/13 10:17:09;;;;;;;8.30;6.43;;;24.10;99.90;;;;;;6215331;28;89419;-68
2023/10/13 10:20:20;;;;;;;7.63;6.07;;;24.20;99.90;;;;;;6216131;28;89581;-68
2023/10/13 10:23:28;;;;;;;7.70;6.28;;;24.20;99.90;;;;;;6213071;28;89125;-68
2023/10/13 10:26:32;;;;;;;6.80;5.70;;;24.20;99.90;;;;;;6215687;28;89032;-68
2023/10/13 10:29:34;;;;;;;8.07;6.05;;;24.20;99.90;;;;;;6205782;28;88620;-68
2023/10/13 10:32:40;;;;;;;6.90;5.78;;;24.20;99.90;;;;;;6212289;28;89065;-68
2023/10/13 10:35:43;;;;;;;8.25;6.18;;;24.20;99.90;;;;;;6214983;28;87945;-68
2023/10/13 10:38:58;;;;;;;6.95;6.25;;;24.20;99.90;;;;;;6216424;28;90338;-68
2023/10/13 10:42:15;;;;;;;7.90;5.97;;;24.20;99.90;;;;;;6228514;28;89074;-68
2023/10/13 10:45:22;;;;;;;8.85;6.45;;;24.20;99.90;;;;;;6214641;28;88850;-68
2023/10/13 10:48:31;;;;;;;7.60;6.13;;;24.20;99.90;;;;;;6223882;28;87753;-68
2023/10/13 10:51:34;;;;;;;7.47;5.78;;;24.20;99.90;;;;;;6210943;28;89315;-68
2023/10/13 10:54:43;;;;;;;7.03;5.90;;;24.20;99.90;;;;;;6222195;28;89043;-68
2023/10/13 10:57:48;;;;;;;6.60;5.45;;;24.20;99.90;;;;;;6220290;28;89136;-68
2023/10/13 11:01:01;;;;;;;6.30;5.53;;;24.20;99.90;;;;;;6228451;28;88403;-68
2023/10/13 11:04:10;;;;;;;6.10;5.45;;;24.20;99.90;;;;;;6221478;28;89049;-68
2023/10/13 11:07:23;;;;;;;6.72;5.45;;;24.20;99.90;;;;;;6210723;28;89031;-68
2023/10/13 11:10:27;;;;;;;7.47;5.63;;;24.20;99.90;;;;;;6214774;28;88798;-69
2023/10/13 11:13:50;;;;;;;6.85;5.45;;;24.30;99.90;;;;;;6208943;28;89319;-68
2023/10/13 11:16:54;;;;;;;7.97;5.88;;;24.20;99.90;;;;;;6207226;28;89224;-68
2023/10/13 11:19:57;;;;;;;7.93;5.78;;;24.30;99.90;;;;;;6218959;28;89027;-69
2023/10/13 11:22:59;;;;;;;6.07;5.20;;;24.30;99.90;;;;;;6218963;28;89028;-69
2023/10/13 11:26:03;;;;;;;6.68;5.35;;;24.20;99.90;;;;;;6229353;28;88858;-69
2023/10/13 11:29:10;;;;;;;6.18;5.38;;;24.30;99.90;;;;;;6209575;28;89304;-68
2023/10/13 11:32:19;;;;;;;7.10;5.57;;;24.30;99.90;;;;;;6223735;28;87759;-69
2023/10/13 11:35:23;;;;;;;6.65;5.35;;;24.30;99.90;;;;;;6220088;28;88265;-68
2023/10/13 11:38:27;;;;;;;5.47;4.85;;;24.20;99.90;;;;;;6212464;28;89005;-68
2023/10/13 11:41:33;;;;;;;7.40;5.72;;;24.20;99.90;;;;;;6218894;28;90375;-68
2023/10/13 11:44:43;;;;;;;6.63;5.50;;;24.20;99.90;;;;;;6210916;28;89375;-69
2023/10/13 11:47:58;;;;;;;6.03;5.43;;;24.20;99.90;;;;;;6214915;28;87884;-69
2023/10/13 11:51:00;;;;;;;6.07;5.25;;;24.20;99.90;;;;;;6218464;28;89040;-68
2023/10/13 11:54:02;;;;;;;7.30;5.15;;;24.20;99.90;;;;;;6220421;28;88006;-68
2023/10/13 11:57:07;;;;;;;6.70;5.45;;;24.20;99.90;;;;;;6223972;28;89755;-68
2023/10/13 12:00:27;;;;;;;6.75;5.50;;;24.20;99.90;;;;;;6222609;28;87938;-68
2023/10/13 12:07:03;;;;;;;5.72;5.00;;;24.20;99.90;;;;;;6205336;28;87246;-68
2023/10/13 12:10:06;;;;;;;5.90;4.63;;;24.20;99.90;;;;;;6218352;28;89066;-68
2023/10/13 12:13:10;;;;;;;6.53;5.10;;;24.30;99.90;;;;;;6228439;28;90032;-68
2023/10/13 12:16:13;;;;;;;7.75;5.50;;;24.20;99.90;;;;;;6218109;28;89229;-68
2023/10/13 12:19:16;;;;;;;7.05;5.03;;;24.30;99.90;;;;;;6218903;28;88108;-69
2023/10/13 12:22:25;;;;;;;6.97;5.25;;;24.20;99.90;;;;;;6222280;28;88999;-69
2023/10/13 12:25:44;;;;;;;7.25;5.20;;;24.30;99.90;;;;;;6228841;28;89126;-69
2023/10/13 12:28:52;;;;;;;6.80;5.28;;;24.20;99.90;;;;;;6217434;28;89265;-68
2023/10/13 12:32:07;;;;;;;6.90;5.10;;;24.20;99.90;;;;;;6214293;28;88987;-69
2023/10/13 12:35:27;;;;;;;6.35;4.80;;;24.20;99.90;;;;;;6222261;28;87054;-69
2023/10/13 12:38:36;;;;;;;5.68;4.88;;;24.20;99.90;;;;;;6221299;28;90288;-69
2023/10/13 12:51:50;;;;;;;9.63;5.05;;;24.20;99.90;;;;;;6208988;28;87342;-68
2023/10/13 12:54:58;;;;;;;6.78;4.93;;;24.20;99.90;;;;;;6228672;28;90279;-68
2023/10/13 12:58:00;;;;;;;6.68;4.82;;;24.30;99.90;;;;;;6222208;28;87834;-68
2023/10/13 13:01:06;;;;;;;7.97;4.93;;;24.20;99.90;;;;;;6218115;28;89044;-69
2023/10/13 13:04:19;;;;;;;6.38;4.82;;;24.30;99.90;;;;;;6227501;28;88822;-68
2023/10/13 13:07:21;;;;;;;9.18;5.20;;;24.30;99.90;;;;;;6209758;28;88290;-68
2023/10/13 13:10:39;;;;;;;8.05;5.32;;;24.20;99.90;;;;;;6231165;28;88005;-67
2023/10/13 13:13:41;;;;;;;13.15;5.65;;;24.30;99.90;;;;;;6233971;28;89068;-67
2023/10/13 13:16:48;;;;;;;11.60;5.35;;;24.30;99.90;;;;;;6220720;28;89955;-68
2023/10/13 13:19:51;;;;;;;8.85;4.93;;;24.20;99.90;;;;;;6220115;28;89210;-69
2023/10/13 13:22:54;;;;;;;8.85;4.80;;;24.20;99.90;;;;;;6210048;28;89492;-68
2023/10/13 13:25:57;;;;;;;7.90;5.25;;;24.30;99.90;;;;;;6218614;28;89381;-68
2023/10/13 13:29:04;;;;;;;8.00;5.28;;;24.20;99.90;;;;;;6221377;28;88305;-68
2023/10/13 13:32:16;;;;;;;8.13;5.10;;;24.30;99.90;;;;;;6217793;28;88998;-68
2023/10/13 13:35:20;;;;;;;7.90;4.88;;;24.20;99.90;;;;;;6216242;28;87836;-69
2023/10/13 13:38:27;;;;;;;8.07;4.97;;;24.20;99.90;;;;;;6215237;28;88410;-68
2023/10/13 13:41:32;;;;;;;8.68;4.70;;;24.20;99.90;;;;;;6211181;28;89032;-69
2023/10/13 13:44:35;;;;;;;7.35;4.90;;;24.20;99.90;;;;;;6226056;28;89175;-68
2023/10/13 13:47:37;;;;;;;8.50;5.03;;;24.20;99.90;;;;;;6213462;28;90067;-69
2023/10/13 13:50:41;;;;;;;9.65;5.13;;;24.20;99.90;;;;;;6227271;28;89003;-69
2023/10/13 13:53:47;;;;;;;6.07;4.80;;;24.20;99.90;;;;;;6225532;28;87863;-69
2023/10/13 13:56:49;;;;;;;7.22;4.63;;;24.20;99.90;;;;;;6211566;28;89303;-69
2023/10/13 13:59:53;;;;;;;9.00;4.93;;;24.20;99.90;;;;;;6215034;28;89089;-69
2023/10/13 14:02:55;;;;;;;6.50;4.70;;;24.20;99.90;;;;;;6216669;28;89078;-69
2023/10/13 14:05:59;;;;;;;8.05;4.75;;;24.20;99.90;;;;;;6212526;28;88656;-69
2023/10/13 14:09:05;;;;;;;7.07;4.80;;;24.20;99.90;;;;;;6216226;28;88710;-69
2023/10/13 14:15:27;;;;;;;8.77;4.93;;;24.30;99.90;;;;;;6226439;28;87023;-69
2023/10/13 14:18:30;;;;;;;9.95;5.60;;;24.20;99.90;;;;;;6210842;28;89999;-69
2023/10/13 14:21:34;;;;;;;9.25;5.45;;;24.20;99.90;;;;;;6206957;28;88861;-69
2023/10/13 14:24:43;;;;;;;8.70;5.22;;;24.20;99.90;;;;;;6210869;28;89129;-69
2023/10/13 14:27:45;;;;;;;10.18;5.85;;;24.20;99.90;;;;;;6207014;28;88007;-69
2023/10/13 14:30:47;;;;;;;11.75;5.68;;;24.30;99.90;;;;;;6229654;28;89145;-69
2023/10/13 14:33:49;;;;;;;11.15;5.55;;;24.30;99.90;;;;;;6227897;28;89047;-69
2023/10/13 14:36:54;;;;;;;13.65;6.15;;;24.30;99.90;;;;;;6207086;28;89002;-69
2023/10/13 14:39:56;;;;;;;12.52;6.45;;;24.30;99.90;;;;;;6214442;28;90202;-69
2023/10/13 14:42:58;;;;;;;12.70;6.60;;;24.30;99.90;;;;;;6207240;28;88264;-69
2023/10/13 14:46:00;;;;;;;12.63;6.32;;;24.30;99.90;;;;;;6211481;28;89093;-69
2023/10/13 14:49:03;;;;;;;14.40;6.63;;;24.20;99.90;;;;;;6211469;28;90007;-69
2023/10/13 14:52:06;;;;;;;15.00;7.20;;;24.30;99.90;;;;;;6210077;28;88999;-69
2023/10/13 14:55:18;;;;;;;13.10;6.30;;;24.30;99.90;;;;;;6227666;28;89087;-69
2023/10/13 14:58:22;;;;;;;18.05;7.57;;;24.20;99.90;;;;;;6210614;28;89152;-69
2023/10/13 15:01:26;;;;;;;13.57;6.53;;;24.20;99.90;;;;;;6212124;28;89005;-69
2023/10/13 15:04:28;;;;;;;14.10;6.93;;;24.20;99.90;;;;;;6218250;28;89584;-69
2023/10/13 15:07:34;;;;;;;13.48;6.80;;;24.20;99.90;;;;;;6211366;28;89061;-69
2023/10/13 15:10:36;;;;;;;14.48;6.47;;;24.20;99.90;;;;;;6223139;28;88392;-70
2023/10/13 15:13:38;;;;;;;13.65;6.45;;;24.20;99.90;;;;;;6217672;28;88712;-69
2023/10/13 15:16:42;;;;;;;15.77;6.82;;;24.20;99.90;;;;;;6205941;28;89163;-69
2023/10/13 15:19:44;;;;;;;14.15;6.97;;;24.20;99.90;;;;;;6217834;28;89146;-70
2023/10/13 15:22:48;;;;;;;16.02;6.90;;;24.30;99.90;;;;;;6218458;28;89129;-69
2023/10/13 15:25:51;;;;;;;13.68;6.90;;;24.30;99.90;;;;;;6218656;28;89046;-69
2023/10/13 15:28:55;;;;;;;12.82;6.90;;;24.30;99.90;;;;;;6213364;28;90166;-69
2023/10/13 15:32:41;;;;;;;16.83;7.30;;;24.30;99.90;;;;;;6212016;28;88951;-69
2023/10/13 15:35:28;;;;;;;12.32;6.13;;;24.20;99.90;;;;;;6212659;28;88765;-69
2023/10/13 15:38:31;;;;;;;13.98;6.65;;;24.20;99.90;;;;;;6208710;28;87957;-68
2023/10/13 15:41:34;;;;;;;16.13;6.85;;;24.30;99.90;;;;;;6217294;28;88425;-68
2023/10/13 15:44:36;;;;;;;14.68;6.70;;;24.20;99.90;;;;;;6223124;28;87982;-68
2023/10/13 15:47:38;;;;;;;16.17;7.13;;;24.20;99.90;;;;;;6214208;28;89068;-69
2023/10/13 15:50:40;;;;;;;12.57;6.68;;;24.20;99.90;;;;;;6210008;28;90067;-69
2023/10/13 15:53:47;;;;;;;15.63;6.78;;;24.20;99.90;;;;;;6225188;28;88939;-69
2023/10/13 15:56:51;;;;;;;15.25;6.80;;;24.20;99.90;;;;;;6221305;28;88933;-69
2023/10/13 15:59:56;;;;;;;13.85;6.78;;;24.20;99.90;;;;;;6220350;28;89481;-69
2023/10/13 16:02:58;;;;;;;13.07;6.80;;;24.20;99.90;;;;;;6230137;28;89043;-68
2023/10/13 16:06:09;;;;;;;12.57;6.43;;;24.20;99.90;;;;;;6227496;28;89003;-69
2023/10/13 16:09:15;;;;;;;12.88;6.25;;;24.20;99.90;;;;;;6220656;28;89409;-69
2023/10/13 16:12:17;;;;;;;12.68;6.35;;;24.20;99.90;;;;;;6213180;28;87205;-69
2023/10/13 16:15:21;;;;;;;15.65;6.80;;;24.20;99.90;;;;;;6233005;28;89273;-68
2023/10/13 16:18:23;;;;;;;12.15;6.38;;;24.20;99.90;;;;;;6220821;28;89163;-69
2023/10/13 16:21:25;;;;;;;14.93;6.55;;;24.20;99.90;;;;;;6221151;28;90044;-69
2023/10/13 16:24:28;;;;;;;14.48;6.82;;;24.20;99.90;;;;;;6231013;28;89086;-69
2023/10/13 16:27:30;;;;;;;12.82;6.80;;;24.20;99.90;;;;;;6210983;28;89061;-69
2023/10/13 16:30:32;;;;;;;14.52;6.70;;;24.20;99.90;;;;;;6217578;28;89194;-69
2023/10/13 16:33:35;;;;;;;12.45;6.50;;;24.20;99.90;;;;;;6221988;28;89110;-69
2023/10/13 16:36:37;;;;;;;14.23;6.30;;;24.20;99.90;;;;;;6208172;28;89073;-69
2023/10/13 16:39:40;;;;;;;11.35;6.28;;;24.20;99.90;;;;;;6216754;28;89754;-69
2023/10/13 16:42:42;;;;;;;12.32;6.60;;;24.20;99.90;;;;;;6220449;28;88287;-69
2023/10/13 16:45:45;;;;;;;12.95;6.35;;;24.10;99.90;;;;;;6226460;28;89408;-68
2023/10/13 16:48:49;;;;;;;13.70;6.85;;;24.10;99.90;;;;;;6212364;28;89067;-69
2023/10/13 16:51:51;;;;;;;15.38;6.75;;;24.10;99.90;;;;;;6218998;28;90135;-69
2023/10/13 16:54:54;;;;;;;13.13;6.22;;;24.10;99.90;;;;;;6227512;28;89132;-69
2023/10/13 16:57:56;;;;;;;11.45;5.68;;;24.10;99.90;;;;;;6213413;28;88977;-69
2023/10/13 17:01:03;;;;;;;10.50;5.90;;;24.20;99.90;;;;;;6224691;28;89175;-68
2023/10/13 17:04:05;;;;;;;10.27;5.90;;;24.10;99.90;;;;;;6231859;28;89190;-69
2023/10/13 17:07:08;;;;;;;13.10;6.53;;;24.10;99.90;;;;;;6218193;28;89015;-68
2023/10/13 17:10:13;;;;;;;9.50;5.10;;;24.20;99.90;;;;;;6231969;28;89050;-69
2023/10/13 17:13:15;;;;;;;10.82;5.70;;;24.20;99.90;;;;;;6209609;28;88362;-69
2023/10/13 17:16:19;;;;;;;10.90;5.75;;;24.10;99.90;;;;;;6226875;28;88962;-68
2023/10/13 17:19:22;;;;;;;10.68;6.00;;;24.10;99.90;;;;;;6230598;28;89057;-69
2023/10/13 17:22:24;;;;;;;11.55;5.95;;;24.20;99.90;;;;;;6230654;28;90160;-69
2023/10/13 17:25:27;;;;;;;11.48;5.90;;;24.20;99.90;;;;;;6226480;28;89098;-69
2023/10/13 17:28:29;;;;;;;9.73;5.68;;;24.10;99.90;;;;;;6214097;28;89287;-68
2023/10/13 17:31:32;;;;;;;11.18;6.25;;;24.10;99.90;;;;;;6214192;28;89003;-69
2023/10/13 17:34:34;;;;;;;9.73;5.57;;;24.10;99.90;;;;;;6232305;28;88941;-69
2023/10/13 17:37:42;;;;;;;9.38;5.50;;;24.10;99.90;;;;;;6212764;28;89088;-69
2023/10/13 17:40:47;;;;;;;11.85;5.72;;;24.10;99.90;;;;;;6220975;28;87463;-68
2023/10/13 17:43:49;;;;;;;11.15;6.25;;;24.10;99.90;;;;;;6217769;28;88113;-69
2023/10/13 17:46:52;;;;;;;10.50;6.03;;;24.10;99.90;;;;;;6215963;28;89230;-69
2023/10/13 17:49:54;;;;;;;9.52;5.50;;;24.10;99.90;;;;;;6220752;28;89376;-69
2023/10/13 17:52:57;;;;;;;9.38;5.57;;;24.10;99.90;;;;;;6216411;28;89957;-69
2023/10/13 17:56:05;;;;;;;7.93;5.20;;;24.20;99.90;;;;;;6222193;28;89259;-69
2023/10/13 17:59:07;;;;;;;9.40;5.50;;;24.10;99.90;;;;;;6211786;28;89025;-69
2023/10/13 18:02:11;;;;;;;9.90;5.45;;;24.10;99.90;;;;;;6225205;28;88908;-68
2023/10/13 18:05:15;;;;;;;7.93;5.50;;;24.10;99.90;;;;;;6227140;28;88200;-69
2023/10/13 18:08:19;;;;;;;8.57;5.20;;;24.10;99.90;;;;;;6207428;28;86986;-69
2023/10/13 18:11:25;;;;;;;8.38;5.32;;;24.20;99.90;;;;;;6219645;28;88013;-69